createdAt,value
2018-04-19T00:01:02.563Z,0
2018-04-19T00:01:58.844Z,0
2018-04-19T00:02:58.890Z,0
2018-04-19T00:03:58.741Z,0
2018-04-19T00:04:58.989Z,0
2018-04-19T00:05:59.471Z,0
2018-04-19T00:06:58.933Z,0
2018-04-19T00:07:59.334Z,0
2018-04-19T00:08:59.302Z,0
2018-04-19T00:09:59.319Z,0
2018-04-19T00:10:59.370Z,0
2018-04-19T00:12:00.067Z,0
2018-04-19T00:12:59.720Z,0
2018-04-19T00:13:59.726Z,0
2018-04-19T00:14:59.566Z,0
2018-04-19T00:15:59.223Z,0
2018-04-19T00:16:59.996Z,0
2018-04-19T00:17:59.770Z,0
2018-04-19T00:19:00.080Z,0
2018-04-19T00:19:59.781Z,0
2018-04-19T00:21:00.510Z,0
2018-04-19T00:21:59.729Z,0
2018-04-19T00:23:00.076Z,0
2018-04-19T00:24:00.590Z,0
2018-04-19T00:25:00.392Z,0
2018-04-19T00:26:01.135Z,0
2018-04-19T00:27:01.152Z,0
2018-04-19T00:28:01.105Z,0
2018-04-19T00:29:01.706Z,0
2018-04-19T00:30:01.453Z,0
2018-04-19T00:31:02.264Z,0
2018-04-19T00:32:01.768Z,0
2018-04-19T00:33:01.769Z,0
2018-04-19T00:34:02.240Z,0
2018-04-19T00:35:02.058Z,0
2018-04-19T00:36:02.309Z,0
2018-04-19T00:37:02.316Z,0
2018-04-19T00:38:02.606Z,0
2018-04-19T00:39:02.806Z,0
2018-04-19T00:40:03.715Z,0
2018-04-19T00:41:03.550Z,0
2018-04-19T00:42:03.409Z,0
2018-04-19T00:43:03.622Z,0
2018-04-19T00:44:03.371Z,0
2018-04-19T00:45:03.422Z,0
2018-04-19T00:46:03.398Z,0
2018-04-19T00:47:03.963Z,0
2018-04-19T00:48:04.183Z,0
2018-04-19T00:49:04.014Z,0
2018-04-19T00:50:03.999Z,0
2018-04-19T00:51:04.376Z,0
2018-04-19T00:52:04.236Z,0
2018-04-19T00:53:04.168Z,0
2018-04-19T00:54:04.408Z,0
2018-04-19T00:55:04.801Z,0
2018-04-19T00:56:04.480Z,0
2018-04-19T00:57:05.017Z,0
2018-04-19T00:58:05.026Z,0
2018-04-19T00:59:05.203Z,0
2018-04-19T01:00:18.378Z,0
2018-04-19T01:01:05.620Z,0
2018-04-19T01:02:05.891Z,0
2018-04-19T01:03:06.290Z,0
2018-04-19T01:04:06.281Z,0
2018-04-19T01:05:06.082Z,0
2018-04-19T01:06:06.504Z,0
2018-04-19T01:07:06.120Z,0
2018-04-19T01:08:06.654Z,0
2018-04-19T01:09:07.058Z,0
2018-04-19T01:10:07.000Z,0
2018-04-19T01:11:07.150Z,0
2018-04-19T01:12:07.297Z,0
2018-04-19T01:13:07.433Z,0
2018-04-19T01:14:07.983Z,0
2018-04-19T01:15:07.511Z,0
2018-04-19T01:16:07.651Z,0
2018-04-19T01:17:08.352Z,0
2018-04-19T01:18:08.219Z,0
2018-04-19T01:19:07.932Z,0
2018-04-19T01:20:08.488Z,0
2018-04-19T01:21:08.451Z,0
2018-04-19T01:22:07.926Z,0
2018-04-19T01:23:08.724Z,0
2018-04-19T01:24:08.208Z,0
2018-04-19T01:25:08.351Z,0
2018-04-19T01:26:08.796Z,0
2018-04-19T01:27:09.018Z,0
2018-04-19T01:28:09.166Z,0
2018-04-19T01:29:09.867Z,0
2018-04-19T01:30:09.735Z,0
2018-04-19T01:31:09.955Z,0
2018-04-19T01:32:09.198Z,0
2018-04-19T01:33:09.729Z,0
2018-04-19T01:34:10.175Z,0
2018-04-19T01:35:09.983Z,0
2018-04-19T01:36:10.460Z,0
2018-04-19T01:37:10.715Z,0
2018-04-19T01:38:10.494Z,0
2018-04-19T01:39:10.405Z,0
2018-04-19T01:40:11.056Z,0
2018-04-19T01:41:10.465Z,0
2018-04-19T01:42:11.265Z,0
2018-04-19T01:43:11.327Z,0
2018-04-19T01:44:12.081Z,0
2018-04-19T01:45:11.330Z,0
2018-04-19T01:46:11.438Z,0
2018-04-19T01:47:12.121Z,0
2018-04-19T01:48:11.870Z,0
2018-04-19T01:49:11.655Z,0
2018-04-19T01:50:11.777Z,0
2018-04-19T01:51:11.712Z,0
2018-04-19T01:52:12.355Z,0
2018-04-19T01:53:12.650Z,0
2018-04-19T01:54:12.261Z,0
2018-04-19T01:55:12.682Z,0
2018-04-19T01:56:12.842Z,0
2018-04-19T01:57:13.518Z,0
2018-04-19T01:58:13.043Z,0
2018-04-19T01:59:13.323Z,0
2018-04-19T02:00:15.124Z,0
2018-04-19T02:01:13.838Z,0
2018-04-19T02:02:14.367Z,0
2018-04-19T02:03:14.270Z,0
2018-04-19T02:04:14.689Z,0
2018-04-19T02:05:15.130Z,0
2018-04-19T02:06:15.150Z,0
2018-04-19T02:07:15.331Z,0
2018-04-19T02:08:14.953Z,0
2018-04-19T02:09:15.350Z,0
2018-04-19T02:10:15.762Z,0
2018-04-19T02:11:16.238Z,0
2018-04-19T02:12:16.220Z,0
2018-04-19T02:13:16.657Z,0
2018-04-19T02:14:16.785Z,0
2018-04-19T02:15:16.966Z,0
2018-04-19T02:16:17.255Z,0
2018-04-19T02:17:17.637Z,0
2018-04-19T02:18:17.417Z,0
2018-04-19T02:19:17.969Z,0
2018-04-19T02:20:18.147Z,0
2018-04-19T02:21:18.263Z,0
2018-04-19T02:22:18.918Z,0
2018-04-19T02:23:18.969Z,0
2018-04-19T02:24:18.973Z,0
2018-04-19T02:25:19.342Z,0
2018-04-19T02:26:19.122Z,0
2018-04-19T02:27:19.250Z,0
2018-04-19T02:28:19.569Z,0
2018-04-19T02:29:19.968Z,0
2018-04-19T02:30:20.271Z,0
2018-04-19T02:31:20.286Z,0
2018-04-19T02:32:20.070Z,0
2018-04-19T02:33:20.490Z,0
2018-04-19T02:34:19.991Z,0
2018-04-19T02:35:20.795Z,0
2018-04-19T02:36:20.681Z,0
2018-04-19T02:37:20.682Z,0
2018-04-19T02:38:20.714Z,0
2018-04-19T02:39:19.978Z,0
2018-04-19T02:40:20.509Z,0
2018-04-19T02:41:20.810Z,0
2018-04-19T02:42:20.476Z,0
2018-04-19T02:43:20.888Z,0
2018-04-19T02:44:20.833Z,0
2018-04-19T02:45:21.041Z,0
2018-04-19T02:46:21.195Z,0
2018-04-19T02:47:21.684Z,0
2018-04-19T02:48:21.387Z,0
2018-04-19T02:49:21.897Z,0
2018-04-19T02:50:21.952Z,0
2018-04-19T02:51:21.993Z,0
2018-04-19T02:52:22.351Z,0
2018-04-19T02:53:22.714Z,0
2018-04-19T02:54:22.767Z,0
2018-04-19T02:55:22.937Z,0
2018-04-19T02:56:23.320Z,0
2018-04-19T02:57:22.842Z,0
2018-04-19T02:58:22.986Z,0
2018-04-19T02:59:23.249Z,0
2018-04-19T03:00:38.266Z,0
2018-04-19T03:01:23.534Z,0
2018-04-19T03:02:24.070Z,0
2018-04-19T03:03:24.108Z,0
2018-04-19T03:04:23.838Z,0
2018-04-19T03:05:23.612Z,0
2018-04-19T03:06:24.145Z,0
2018-04-19T03:07:24.101Z,0
2018-04-19T03:08:24.146Z,0
2018-04-19T03:09:24.483Z,0
2018-04-19T03:10:24.453Z,0
2018-04-19T03:11:24.184Z,0
2018-04-19T03:12:24.804Z,0
2018-04-19T03:13:24.651Z,0
2018-04-19T03:14:24.346Z,0
2018-04-19T03:15:25.197Z,0
2018-04-19T03:16:24.649Z,0
2018-04-19T03:17:25.352Z,0
2018-04-19T03:18:25.356Z,0
2018-04-19T03:19:25.156Z,0
2018-04-19T03:20:24.850Z,0
2018-04-19T03:21:25.304Z,0
2018-04-19T03:22:25.761Z,0
2018-04-19T03:23:25.866Z,0
2018-04-19T03:24:25.794Z,0
2018-04-19T03:25:25.999Z,0
2018-04-19T03:26:26.279Z,0
2018-04-19T03:27:25.764Z,0
2018-04-19T03:28:26.109Z,0
2018-04-19T03:29:26.551Z,0
2018-04-19T03:30:26.333Z,0
2018-04-19T03:31:26.524Z,0
2018-04-19T03:32:26.765Z,0
2018-04-19T03:33:27.172Z,0
2018-04-19T03:34:27.983Z,0
2018-04-19T03:35:28.162Z,0
2018-04-19T03:36:27.622Z,0
2018-04-19T03:37:27.861Z,0
2018-04-19T03:38:28.081Z,0
2018-04-19T03:39:28.478Z,0
2018-04-19T03:40:29.188Z,0
2018-04-19T03:41:29.978Z,0
2018-04-19T03:42:29.061Z,0
2018-04-19T03:43:29.380Z,0
2018-04-19T03:44:28.795Z,0
2018-04-19T03:45:29.095Z,0
2018-04-19T03:46:29.887Z,0
2018-04-19T03:47:29.367Z,0
2018-04-19T03:48:29.327Z,0
2018-04-19T03:49:29.481Z,0
2018-04-19T03:50:29.628Z,0
2018-04-19T03:51:29.958Z,0
2018-04-19T03:52:30.265Z,0
2018-04-19T03:53:31.050Z,0
2018-04-19T03:54:30.242Z,0
2018-04-19T03:55:31.574Z,0
2018-04-19T03:56:30.552Z,0
2018-04-19T03:57:31.035Z,5
2018-04-19T03:58:30.530Z,5
2018-04-19T03:59:30.673Z,5
2018-04-19T04:00:30.805Z,5
2018-04-19T04:01:31.348Z,5
2018-04-19T04:02:31.712Z,5
2018-04-19T04:03:31.487Z,5
2018-04-19T04:04:31.400Z,5
2018-04-19T04:05:32.514Z,10
2018-04-19T04:06:31.767Z,10
2018-04-19T04:07:31.972Z,10
2018-04-19T04:08:31.976Z,10
2018-04-19T04:09:32.741Z,10
2018-04-19T04:10:32.809Z,10
2018-04-19T04:11:32.543Z,15
2018-04-19T04:12:32.745Z,15
2018-04-19T04:13:32.976Z,15
2018-04-19T04:14:32.722Z,15
2018-04-19T04:15:32.728Z,15
2018-04-19T04:16:32.848Z,20
2018-04-19T04:17:33.655Z,20
2018-04-19T04:18:33.366Z,20
2018-04-19T04:19:33.614Z,20
2018-04-19T04:20:34.165Z,25
2018-04-19T04:21:34.183Z,25
2018-04-19T04:22:34.201Z,25
2018-04-19T04:23:34.382Z,25
2018-04-19T04:24:34.713Z,30
2018-04-19T04:25:34.273Z,30
2018-04-19T04:26:34.497Z,30
2018-04-19T04:27:35.059Z,35
2018-04-19T04:28:35.098Z,35
2018-04-19T04:29:34.831Z,35
2018-04-19T04:30:35.630Z,40
2018-04-19T04:31:35.105Z,40
2018-04-19T04:32:35.847Z,40
2018-04-19T04:33:35.626Z,45
2018-04-19T04:34:35.633Z,45
2018-04-19T04:35:35.846Z,45
2018-04-19T04:36:35.346Z,50
2018-04-19T04:37:36.169Z,50
2018-04-19T04:38:35.848Z,50
2018-04-19T04:39:36.662Z,55
2018-04-19T04:40:36.848Z,55
2018-04-19T04:41:37.076Z,60
2018-04-19T04:42:37.463Z,60
2018-04-19T04:43:37.464Z,60
2018-04-19T04:44:37.381Z,65
2018-04-19T04:45:37.726Z,65
2018-04-19T04:46:38.498Z,70
2018-04-19T04:47:38.013Z,70
2018-04-19T04:48:38.224Z,70
2018-04-19T04:49:38.185Z,75
2018-04-19T04:50:39.034Z,75
2018-04-19T04:51:39.025Z,80
2018-04-19T04:52:38.528Z,80
2018-04-19T04:53:38.311Z,85
2018-04-19T04:54:38.867Z,85
2018-04-19T04:55:39.138Z,85
2018-04-19T04:56:38.780Z,85
2018-04-19T04:57:39.354Z,90
2018-04-19T04:58:38.880Z,90
2018-04-19T04:59:39.407Z,90
2018-04-19T05:00:41.092Z,95
2018-04-19T05:01:40.032Z,95
2018-04-19T05:02:39.735Z,100
2018-04-19T05:03:39.495Z,100
2018-04-19T05:04:39.609Z,105
2018-04-19T05:05:40.411Z,105
2018-04-19T05:06:40.475Z,110
2018-04-19T05:07:39.560Z,110
2018-04-19T05:08:39.819Z,115
2018-04-19T05:09:40.174Z,115
2018-04-19T05:10:40.274Z,120
2018-04-19T05:11:40.678Z,125
2018-04-19T05:12:40.850Z,125
2018-04-19T05:13:41.971Z,130
2018-04-19T05:14:41.509Z,135
2018-04-19T05:15:40.833Z,140
2018-04-19T05:16:40.704Z,145
2018-04-19T05:17:41.258Z,155
2018-04-19T05:18:41.947Z,170
2018-04-19T05:19:41.956Z,190
2018-04-19T05:20:42.029Z,215
2018-04-19T05:21:41.224Z,235
2018-04-19T05:22:41.833Z,240
2018-04-19T05:23:42.230Z,235
2018-04-19T05:24:42.629Z,280
2018-04-19T05:25:42.934Z,335
2018-04-19T05:26:42.830Z,325
2018-04-19T05:27:42.750Z,260
2018-04-19T05:28:43.005Z,295
2018-04-19T05:29:43.152Z,315
2018-04-19T05:30:44.133Z,350
2018-04-19T05:31:43.782Z,420
2018-04-19T05:32:43.386Z,425
2018-04-19T05:33:43.300Z,460
2018-04-19T05:34:44.452Z,470
2018-04-19T05:35:44.828Z,485
2018-04-19T05:36:43.967Z,490
2018-04-19T05:37:44.130Z,490
2018-04-19T05:38:44.386Z,535
2018-04-19T05:39:44.833Z,560
2018-04-19T05:40:44.660Z,565
2018-04-19T05:41:44.839Z,535
2018-04-19T05:42:44.921Z,495
2018-04-19T05:43:45.334Z,490
2018-04-19T05:44:46.123Z,510
2018-04-19T05:45:46.099Z,525
2018-04-19T05:46:46.122Z,520
2018-04-19T05:47:46.303Z,510
2018-04-19T05:48:46.284Z,520
2018-04-19T05:49:45.957Z,560
2018-04-19T05:50:46.215Z,575
2018-04-19T05:51:46.626Z,580
2018-04-19T05:52:46.781Z,620
2018-04-19T05:53:46.536Z,635
2018-04-19T05:54:47.014Z,645
2018-04-19T05:55:47.165Z,635
2018-04-19T05:56:48.354Z,655
2018-04-19T05:57:47.461Z,675
2018-04-19T05:58:48.160Z,665
2018-04-19T05:59:47.931Z,700
2018-04-19T06:00:47.437Z,750
2018-04-19T06:01:48.296Z,785
2018-04-19T06:02:48.001Z,805
2018-04-19T06:03:47.756Z,840
2018-04-19T06:04:47.961Z,840
2018-04-19T06:05:48.389Z,865
2018-04-19T06:06:48.876Z,880
2018-04-19T06:07:48.855Z,875
2018-04-19T06:08:48.911Z,880
2018-04-19T06:09:49.029Z,890
2018-04-19T06:10:49.681Z,880
2018-04-19T06:11:49.482Z,890
2018-04-19T06:12:49.946Z,900
2018-04-19T06:13:50.065Z,920
2018-04-19T06:14:50.012Z,895
2018-04-19T06:15:49.568Z,885
2018-04-19T06:16:50.232Z,910
2018-04-19T06:17:50.639Z,950
2018-04-19T06:18:50.172Z,990
2018-04-19T06:19:50.813Z,975
2018-04-19T06:20:50.279Z,995
2018-04-19T06:21:50.462Z,1020
2018-04-19T06:22:51.147Z,1025
2018-04-19T06:23:50.697Z,1010
2018-04-19T06:24:51.093Z,995
2018-04-19T06:25:50.934Z,1045
2018-04-19T06:26:50.557Z,1070
2018-04-19T06:27:51.881Z,1065
2018-04-19T06:28:51.481Z,980
2018-04-19T06:29:52.121Z,1050
2018-04-19T06:30:51.780Z,1120
2018-04-19T06:31:52.963Z,1150
2018-04-19T06:32:53.701Z,1155
2018-04-19T06:33:52.887Z,1155
2018-04-19T06:34:53.650Z,1165
2018-04-19T06:35:54.158Z,1170
2018-04-19T06:36:52.849Z,1160
2018-04-19T06:37:53.390Z,1190
2018-04-19T06:38:53.137Z,1215
2018-04-19T06:39:53.345Z,1205
2018-04-19T06:40:53.535Z,1230
2018-04-19T06:41:54.032Z,1245
2018-04-19T06:42:53.356Z,1250
2018-04-19T06:43:53.756Z,1205
2018-04-19T06:44:53.448Z,1200
2018-04-19T06:45:53.341Z,1265
2018-04-19T06:46:53.325Z,1285
2018-04-19T06:47:53.639Z,1280
2018-04-19T06:48:54.364Z,1270
2018-04-19T06:49:54.034Z,1285
2018-04-19T06:50:54.253Z,1290
2018-04-19T06:51:53.865Z,1265
2018-04-19T06:52:53.055Z,1275
2018-04-19T06:53:53.767Z,1290
2018-04-19T06:54:53.068Z,1290
2018-04-19T06:55:53.776Z,1330
2018-04-19T06:56:54.204Z,1300
2018-04-19T06:57:53.989Z,1255
2018-04-19T06:58:54.825Z,1345
2018-04-19T06:59:54.707Z,1365
2018-04-19T07:00:54.311Z,1370
2018-04-19T07:01:54.664Z,1340
2018-04-19T07:02:52.912Z,1365
2018-04-19T07:03:53.035Z,1415
2018-04-19T07:04:52.991Z,1410
2018-04-19T07:05:53.403Z,1430
2018-04-19T07:06:53.016Z,1460
2018-04-19T07:07:53.574Z,1385
2018-04-19T07:08:54.068Z,1415
2018-04-19T07:09:54.311Z,1215
2018-04-19T07:10:54.091Z,1115
2018-04-19T07:11:54.043Z,1210
2018-04-19T07:12:54.580Z,1295
2018-04-19T07:13:54.731Z,1330
2018-04-19T07:14:55.419Z,1310
2018-04-19T07:15:55.592Z,1265
2018-04-19T07:16:55.738Z,1185
2018-04-19T07:17:56.622Z,1315
2018-04-19T07:18:56.456Z,1455
2018-04-19T07:19:56.272Z,1365
2018-04-19T07:20:56.194Z,1430
2018-04-19T07:21:56.726Z,1505
2018-04-19T07:22:57.190Z,1490
2018-04-19T07:23:57.355Z,1505
2018-04-19T07:24:57.892Z,1510
2018-04-19T07:25:58.116Z,1520
2018-04-19T07:26:57.879Z,1575
2018-04-19T07:27:58.310Z,1580
2018-04-19T07:28:58.318Z,1580
2018-04-19T07:29:58.115Z,1570
2018-04-19T07:30:58.266Z,1630
2018-04-19T07:31:58.685Z,1570
2018-04-19T07:32:59.135Z,1420
2018-04-19T07:33:59.575Z,1460
2018-04-19T07:35:00.024Z,1460
2018-04-19T07:36:00.111Z,1410
2018-04-19T07:36:59.827Z,1550
2018-04-19T07:37:59.483Z,1610
2018-04-19T07:39:00.788Z,1610
2018-04-19T07:40:00.499Z,1620
2018-04-19T07:41:00.463Z,1645
2018-04-19T07:42:00.081Z,1650
2018-04-19T07:43:00.658Z,1610
2018-04-19T07:44:00.616Z,1675
2018-04-19T07:45:00.431Z,1725
2018-04-19T07:46:00.897Z,1615
2018-04-19T07:47:01.565Z,1670
2018-04-19T07:48:01.362Z,1715
2018-04-19T07:49:01.275Z,1675
2018-04-19T07:50:02.114Z,1745
2018-04-19T07:51:02.241Z,1755
2018-04-19T07:52:02.206Z,1755
2018-04-19T07:53:02.006Z,1815
2018-04-19T07:54:02.273Z,1715
2018-04-19T07:55:02.048Z,1625
2018-04-19T07:56:02.875Z,1750
2018-04-19T07:57:02.004Z,1750
2018-04-19T07:58:03.119Z,1760
2018-04-19T07:59:02.929Z,1750
2018-04-19T08:00:10.012Z,1680
2018-04-19T08:01:02.832Z,1735
2018-04-19T08:02:02.981Z,1810
2018-04-19T08:03:03.149Z,1845
2018-04-19T08:04:03.610Z,1865
2018-04-19T08:05:03.204Z,1865
2018-04-19T08:06:03.861Z,1825
2018-04-19T08:07:04.275Z,1730
2018-04-19T08:08:04.380Z,1830
2018-04-19T08:09:05.834Z,1910
2018-04-19T08:10:05.210Z,1940
2018-04-19T08:11:05.697Z,1870
2018-04-19T08:12:05.919Z,1875
2018-04-19T08:13:06.730Z,1780
2018-04-19T08:14:05.755Z,1770
2018-04-19T08:15:06.421Z,1845
2018-04-19T08:16:06.170Z,1885
2018-04-19T08:17:07.068Z,1980
2018-04-19T08:18:06.839Z,1975
2018-04-19T08:19:06.800Z,1990
2018-04-19T08:20:07.201Z,2000
2018-04-19T08:21:07.411Z,1965
2018-04-19T08:22:07.812Z,1785
2018-04-19T08:23:08.643Z,1590
2018-04-19T08:24:09.662Z,1585
2018-04-19T08:25:08.886Z,1525
2018-04-19T08:26:08.877Z,1390
2018-04-19T08:27:08.502Z,1350
2018-04-19T08:28:08.946Z,1530
2018-04-19T08:29:09.103Z,1600
2018-04-19T08:30:09.103Z,1665
2018-04-19T08:31:09.079Z,1570
2018-04-19T08:32:09.389Z,1535
2018-04-19T08:33:09.734Z,1625
2018-04-19T08:34:09.867Z,1840
2018-04-19T08:35:10.408Z,1900
2018-04-19T08:36:10.350Z,1890
2018-04-19T08:37:10.502Z,1975
2018-04-19T08:38:11.168Z,2140
2018-04-19T08:39:10.704Z,2160
2018-04-19T08:40:10.724Z,2165
2018-04-19T08:41:11.210Z,2200
2018-04-19T08:42:11.416Z,2175
2018-04-19T08:43:12.081Z,2155
2018-04-19T08:44:11.851Z,2230
2018-04-19T08:45:12.064Z,2220
2018-04-19T08:46:12.221Z,2180
2018-04-19T08:47:12.786Z,2100
2018-04-19T08:48:12.443Z,2100
2018-04-19T08:49:13.445Z,2105
2018-04-19T08:50:12.720Z,2190
2018-04-19T08:51:13.650Z,2245
2018-04-19T08:52:13.372Z,2195
2018-04-19T08:53:13.213Z,2185
2018-04-19T08:54:13.783Z,2280
2018-04-19T08:55:13.655Z,2300
2018-04-19T08:56:13.572Z,2345
2018-04-19T08:57:13.500Z,2325
2018-04-19T08:58:14.216Z,2255
2018-04-19T08:59:13.990Z,2145
2018-04-19T09:00:27.153Z,2050
2018-04-19T09:01:27.024Z,2040
2018-04-19T09:02:27.899Z,2100
2018-04-19T09:03:28.017Z,2255
2018-04-19T09:04:27.929Z,2235
2018-04-19T09:05:28.750Z,2085
2018-04-19T09:06:28.255Z,1995
2018-04-19T09:07:28.956Z,2110
2018-04-19T09:08:28.963Z,2215
2018-04-19T09:09:29.012Z,2230
2018-04-19T09:10:28.541Z,2135
2018-04-19T09:11:29.243Z,2235
2018-04-19T09:12:28.736Z,2150
2018-04-19T09:13:29.797Z,2045
2018-04-19T09:14:29.280Z,2100
2018-04-19T09:15:29.732Z,2085
2018-04-19T09:16:30.136Z,2190
2018-04-19T09:17:30.549Z,2155
2018-04-19T09:18:30.334Z,2090
2018-04-19T09:19:30.894Z,2280
2018-04-19T09:20:30.807Z,2265
2018-04-19T09:21:30.590Z,2335
2018-04-19T09:22:30.746Z,2225
2018-04-19T09:23:31.170Z,2230
2018-04-19T09:24:31.318Z,2315
2018-04-19T09:25:32.716Z,2335
2018-04-19T09:26:32.079Z,2380
2018-04-19T09:27:31.866Z,2355
2018-04-19T09:28:31.993Z,2390
2018-04-19T09:29:31.884Z,2340
2018-04-19T09:30:32.375Z,2260
2018-04-19T09:31:32.590Z,2295
2018-04-19T09:32:33.411Z,2400
2018-04-19T09:33:32.689Z,2355
2018-04-19T09:34:33.990Z,2365
2018-04-19T09:35:33.529Z,2355
2018-04-19T09:36:33.260Z,2290
2018-04-19T09:37:34.417Z,2315
2018-04-19T09:38:33.628Z,2325
2018-04-19T09:39:34.044Z,2475
2018-04-19T09:40:33.663Z,2685
2018-04-19T09:41:34.878Z,2705
2018-04-19T09:42:34.681Z,2400
2018-04-19T09:43:35.193Z,2285
2018-04-19T09:44:34.751Z,2210
2018-04-19T09:45:34.295Z,1590
2018-04-19T09:46:34.903Z,785
2018-04-19T09:47:34.237Z,650
2018-04-19T09:48:35.476Z,625
2018-04-19T09:49:35.056Z,600
2018-04-19T09:50:34.839Z,585
2018-04-19T09:51:34.821Z,575
2018-04-19T09:52:35.268Z,565
2018-04-19T09:53:35.149Z,555
2018-04-19T09:54:35.406Z,550
2018-04-19T09:55:35.604Z,545
2018-04-19T09:56:35.765Z,545
2018-04-19T09:57:36.638Z,530
2018-04-19T09:58:36.266Z,525
2018-04-19T09:59:36.681Z,525
2018-04-19T10:00:36.783Z,525
2018-04-19T10:01:36.831Z,510
2018-04-19T10:02:36.762Z,515
2018-04-19T10:03:37.333Z,515
2018-04-19T10:04:37.107Z,515
2018-04-19T10:05:36.786Z,510
2018-04-19T10:06:37.740Z,495
2018-04-19T10:07:37.430Z,490
2018-04-19T10:08:37.163Z,480
2018-04-19T10:09:36.940Z,475
2018-04-19T10:10:37.672Z,465
2018-04-19T10:11:37.903Z,455
2018-04-19T10:12:37.983Z,450
2018-04-19T10:13:37.943Z,445
2018-04-19T10:14:37.955Z,440
2018-04-19T10:15:37.700Z,440
2018-04-19T10:16:37.929Z,435
2018-04-19T10:17:38.257Z,430
2018-04-19T10:18:37.994Z,425
2018-04-19T10:19:38.491Z,420
2018-04-19T10:20:38.253Z,415
2018-04-19T10:21:39.038Z,410
2018-04-19T10:22:38.625Z,405
2018-04-19T10:23:38.258Z,405
2018-04-19T10:24:38.858Z,405
2018-04-19T10:25:38.812Z,400
2018-04-19T10:26:38.738Z,400
2018-04-19T10:27:38.855Z,400
2018-04-19T10:28:39.354Z,395
2018-04-19T10:29:39.719Z,390
2018-04-19T10:30:39.504Z,395
2018-04-19T10:31:39.747Z,385
2018-04-19T10:32:39.539Z,385
2018-04-19T10:33:39.546Z,380
2018-04-19T10:34:40.335Z,380
2018-04-19T10:35:40.085Z,375
2018-04-19T10:36:40.140Z,370
2018-04-19T10:37:40.439Z,370
2018-04-19T10:38:40.887Z,365
2018-04-19T10:39:40.686Z,370
2018-04-19T10:40:40.701Z,365
2018-04-19T10:41:40.926Z,360
2018-04-19T10:42:40.700Z,360
2018-04-19T10:43:41.293Z,360
2018-04-19T10:44:41.765Z,355
2018-04-19T10:45:41.312Z,355
2018-04-19T10:46:41.581Z,355
2018-04-19T10:47:41.880Z,350
2018-04-19T10:48:41.927Z,350
2018-04-19T10:49:41.956Z,355
2018-04-19T10:50:42.019Z,345
2018-04-19T10:51:41.809Z,340
2018-04-19T10:52:42.150Z,340
2018-04-19T10:53:42.417Z,335
2018-04-19T10:54:42.393Z,330
2018-04-19T10:55:43.155Z,325
2018-04-19T10:56:42.659Z,325
2018-04-19T10:57:43.181Z,320
2018-04-19T10:58:43.472Z,320
2018-04-19T10:59:43.466Z,315
2018-04-19T11:00:43.933Z,315
2018-04-19T11:01:43.849Z,310
2018-04-19T11:02:44.159Z,310
2018-04-19T11:03:44.364Z,310
2018-04-19T11:04:45.038Z,305
2018-04-19T11:05:44.902Z,295
2018-04-19T11:06:44.860Z,295
2018-04-19T11:07:45.527Z,295
2018-04-19T11:08:45.498Z,295
2018-04-19T11:09:45.972Z,295
2018-04-19T11:10:46.378Z,295
2018-04-19T11:11:46.230Z,295
2018-04-19T11:12:46.401Z,295
2018-04-19T11:13:46.968Z,290
2018-04-19T11:14:46.732Z,285
2018-04-19T11:15:47.173Z,285
2018-04-19T11:16:47.314Z,280
2018-04-19T11:17:47.704Z,280
2018-04-19T11:18:47.879Z,280
2018-04-19T11:19:48.142Z,275
2018-04-19T11:20:48.843Z,275
2018-04-19T11:21:48.851Z,270
2018-04-19T11:22:48.622Z,265
2018-04-19T11:23:49.291Z,265
2018-04-19T11:24:48.799Z,265
2018-04-19T11:25:49.379Z,265
2018-04-19T11:26:49.160Z,260
2018-04-19T11:27:49.046Z,260
2018-04-19T11:28:49.868Z,260
2018-04-19T11:29:49.631Z,260
2018-04-19T11:30:49.777Z,255
2018-04-19T11:31:49.906Z,255
2018-04-19T11:32:50.236Z,255
2018-04-19T11:33:50.658Z,255
2018-04-19T11:34:51.086Z,255
2018-04-19T11:35:51.226Z,255
2018-04-19T11:36:52.067Z,255
2018-04-19T11:37:51.766Z,250
2018-04-19T11:38:51.996Z,250
2018-04-19T11:39:51.935Z,245
2018-04-19T11:40:52.302Z,240
2018-04-19T11:41:51.560Z,240
2018-04-19T11:42:51.886Z,235
2018-04-19T11:43:52.300Z,230
2018-04-19T11:44:52.479Z,225
2018-04-19T11:45:52.632Z,225
2018-04-19T11:46:52.957Z,220
2018-04-19T11:47:52.524Z,225
2018-04-19T11:48:52.602Z,220
2018-04-19T11:49:52.654Z,220
2018-04-19T11:50:53.219Z,220
2018-04-19T11:51:53.646Z,225
2018-04-19T11:52:54.026Z,220
2018-04-19T11:53:53.771Z,220
2018-04-19T11:54:54.435Z,215
2018-04-19T11:55:54.293Z,215
2018-04-19T11:56:54.028Z,215
2018-04-19T11:57:54.552Z,215
2018-04-19T11:58:54.996Z,210
2018-04-19T11:59:54.747Z,210
2018-04-19T12:00:55.609Z,210
2018-04-19T12:01:55.662Z,210
2018-04-19T12:02:58.790Z,205
2018-04-19T12:03:56.609Z,205
2018-04-19T12:04:55.945Z,205
2018-04-19T12:05:59.015Z,200
2018-04-19T12:06:54.953Z,200
2018-04-19T12:07:55.632Z,205
2018-04-19T12:08:55.799Z,200
2018-04-19T12:09:55.521Z,200
2018-04-19T12:10:56.236Z,200
2018-04-19T12:11:55.674Z,195
2018-04-19T12:12:56.249Z,195
2018-04-19T12:13:56.451Z,200
2018-04-19T12:14:56.416Z,195
2018-04-19T12:15:57.121Z,195
2018-04-19T12:16:56.465Z,195
2018-04-19T12:17:55.902Z,190
2018-04-19T12:18:56.216Z,190
2018-04-19T12:19:56.756Z,190
2018-04-19T12:20:56.580Z,190
2018-04-19T12:21:57.369Z,190
2018-04-19T12:22:56.543Z,185
2018-04-19T12:23:56.809Z,190
2018-04-19T12:24:57.327Z,185
2018-04-19T12:25:57.391Z,185
2018-04-19T12:26:57.432Z,185
2018-04-19T12:27:57.357Z,185
2018-04-19T12:28:57.448Z,185
2018-04-19T12:29:57.682Z,185
2018-04-19T12:30:57.740Z,180
2018-04-19T12:31:57.737Z,180
2018-04-19T12:32:57.535Z,185
2018-04-19T12:33:58.045Z,180
2018-04-19T12:34:57.962Z,180
2018-04-19T12:35:58.199Z,180
2018-04-19T12:36:59.072Z,180
2018-04-19T12:37:58.149Z,180
2018-04-19T12:38:58.716Z,180
2018-04-19T12:39:59.244Z,175
2018-04-19T12:40:59.195Z,175
2018-04-19T12:41:59.917Z,175
2018-04-19T12:42:59.703Z,175
2018-04-19T12:43:59.698Z,175
2018-04-19T12:44:59.839Z,170
2018-04-19T12:46:00.628Z,175
2018-04-19T12:47:00.701Z,170
2018-04-19T12:48:00.382Z,170
2018-04-19T12:49:00.795Z,170
2018-04-19T12:50:01.857Z,165
2018-04-19T12:51:01.516Z,165
2018-04-19T12:52:01.670Z,170
2018-04-19T12:53:01.914Z,165
2018-04-19T12:54:02.225Z,165
2018-04-19T12:55:02.138Z,165
2018-04-19T12:56:02.181Z,165
2018-04-19T12:57:02.092Z,160
2018-04-19T12:58:02.397Z,160
2018-04-19T12:59:02.552Z,160
2018-04-19T13:00:03.511Z,160
2018-04-19T13:01:02.854Z,160
2018-04-19T13:02:02.471Z,160
2018-04-19T13:03:02.674Z,165
2018-04-19T13:04:03.188Z,160
2018-04-19T13:05:03.141Z,160
2018-04-19T13:06:03.337Z,160
2018-04-19T13:07:03.304Z,160
2018-04-19T13:08:03.583Z,155
2018-04-19T13:09:03.477Z,155
2018-04-19T13:10:04.338Z,155
2018-04-19T13:11:04.318Z,155
2018-04-19T13:12:04.485Z,155
2018-04-19T13:13:04.003Z,155
2018-04-19T13:14:04.428Z,155
2018-04-19T13:15:04.896Z,155
2018-04-19T13:16:04.781Z,155
2018-04-19T13:17:05.338Z,155
2018-04-19T13:18:05.639Z,155
2018-04-19T13:19:04.987Z,155
2018-04-19T13:20:05.759Z,155
2018-04-19T13:21:05.057Z,155
2018-04-19T13:22:05.801Z,155
2018-04-19T13:23:05.790Z,150
2018-04-19T13:24:05.704Z,150
2018-04-19T13:25:05.868Z,150
2018-04-19T13:26:06.062Z,150
2018-04-19T13:27:05.798Z,150
2018-04-19T13:28:06.757Z,150
2018-04-19T13:29:06.719Z,150
2018-04-19T13:30:06.440Z,150
2018-04-19T13:31:06.640Z,150
2018-04-19T13:32:07.057Z,150
2018-04-19T13:33:07.213Z,150
2018-04-19T13:34:07.707Z,150
2018-04-19T13:35:08.128Z,150
2018-04-19T13:36:08.006Z,150
2018-04-19T13:37:07.724Z,150
2018-04-19T13:38:08.017Z,145
2018-04-19T13:39:09.284Z,145
2018-04-19T13:40:08.972Z,145
2018-04-19T13:41:08.397Z,145
2018-04-19T13:42:08.627Z,145
2018-04-19T13:43:08.172Z,145
2018-04-19T13:44:08.841Z,145
2018-04-19T13:45:08.690Z,145
2018-04-19T13:46:08.394Z,145
2018-04-19T13:47:08.878Z,145
2018-04-19T13:48:08.407Z,145
2018-04-19T13:49:09.390Z,145
2018-04-19T13:50:09.111Z,140
2018-04-19T13:51:09.160Z,140
2018-04-19T13:52:09.452Z,140
2018-04-19T13:53:08.549Z,140
2018-04-19T13:54:09.251Z,140
2018-04-19T13:55:10.076Z,140
2018-04-19T13:56:09.144Z,140
2018-04-19T13:57:09.638Z,140
2018-04-19T13:58:09.925Z,140
2018-04-19T13:59:09.915Z,140
2018-04-19T14:00:17.595Z,135